createdAt,value
2018-06-08T00:00:14.697Z,63.75
2018-06-08T00:01:35.696Z,63.65
2018-06-08T00:02:14.688Z,63.78
2018-06-08T00:03:14.690Z,63.78
2018-06-08T00:04:14.680Z,63.69
2018-06-08T00:05:14.670Z,63.78
2018-06-08T00:06:14.669Z,63.78
2018-06-08T00:07:35.672Z,63.69
2018-06-08T00:08:14.662Z,63.65
2018-06-08T00:09:14.662Z,63.88
2018-06-08T00:10:14.654Z,63.88
2018-06-08T00:11:14.661Z,64.07
2018-06-08T00:12:14.656Z,64.07
2018-06-08T00:13:35.676Z,64.04
2018-06-08T00:14:14.640Z,64.07
2018-06-08T00:15:14.676Z,64.27
2018-06-08T00:16:14.627Z,64.17
2018-06-08T00:17:14.624Z,64.07
2018-06-08T00:18:14.620Z,63.78
2018-06-08T00:19:35.623Z,64.27
2018-06-08T00:20:14.619Z,63.88
2018-06-08T00:21:14.611Z,64.17
2018-06-08T00:22:14.607Z,63.88
2018-06-08T00:23:14.598Z,63.98
2018-06-08T00:24:14.595Z,63.98
2018-06-08T00:25:35.606Z,64.07
2018-06-08T00:26:14.586Z,63.69
2018-06-08T00:27:14.594Z,63.59
2018-06-08T00:28:14.578Z,64.07
2018-06-08T00:29:14.576Z,63.69
2018-06-08T00:30:14.571Z,63.59
2018-06-08T00:31:35.583Z,63.59
2018-06-08T00:32:14.561Z,63.69
2018-06-08T00:33:14.561Z,63.78
2018-06-08T00:34:14.555Z,64.07
2018-06-08T00:35:14.549Z,64.43
2018-06-08T00:36:14.547Z,64.24
2018-06-08T00:37:35.548Z,64.27
2018-06-08T00:38:14.537Z,64.24
2018-06-08T00:39:14.545Z,64.56
2018-06-08T00:40:14.532Z,64.53
2018-06-08T00:41:14.528Z,64.27
2018-06-08T00:42:14.528Z,64.37
2018-06-08T00:43:35.526Z,64.27
2018-06-08T00:44:14.515Z,64.53
2018-06-08T00:45:14.509Z,64.37
2018-06-08T00:46:14.505Z,64.27
2018-06-08T00:47:14.499Z,64.47
2018-06-08T00:48:14.496Z,64.27
2018-06-08T00:49:35.500Z,64.17
2018-06-08T00:50:14.491Z,64.07
2018-06-08T00:51:14.484Z,64.37
2018-06-08T00:52:14.488Z,64.17
2018-06-08T00:53:14.477Z,64.07
2018-06-08T00:54:14.473Z,64.27
2018-06-08T00:55:35.480Z,64.17
2018-06-08T00:56:14.466Z,64.75
2018-06-08T00:57:14.460Z,64.65
2018-06-08T00:58:14.455Z,64.47
2018-06-08T00:59:14.452Z,64.24
2018-06-08T01:00:14.452Z,64.92
2018-06-08T01:01:35.450Z,64.92
2018-06-08T01:02:14.441Z,64.72
2018-06-08T01:03:14.439Z,64.82
2018-06-08T01:04:14.432Z,64.43
2018-06-08T01:05:14.426Z,64.43
2018-06-08T01:06:14.426Z,65.11
2018-06-08T01:07:35.434Z,64.43
2018-06-08T01:08:14.420Z,64.82
2018-06-08T01:09:14.410Z,64.72
2018-06-08T01:10:14.407Z,64.62
2018-06-08T01:11:14.409Z,64.62
2018-06-08T01:12:14.401Z,64.92
2018-06-08T01:13:35.404Z,64.72
2018-06-08T01:14:14.394Z,64.56
2018-06-08T01:15:14.385Z,65.01
2018-06-08T01:16:14.381Z,64.72
2018-06-08T01:17:14.384Z,64.72
2018-06-08T01:18:14.375Z,64.62
2018-06-08T01:19:35.379Z,64.92
2018-06-08T01:20:14.374Z,64.62
2018-06-08T01:21:14.361Z,64.72
2018-06-08T01:22:14.362Z,64.62
2018-06-08T01:23:14.353Z,64.92
2018-06-08T01:24:14.352Z,64.82
2018-06-08T01:25:35.351Z,64.72
2018-06-08T01:26:14.358Z,64.72
2018-06-08T01:27:14.339Z,64.62
2018-06-08T01:28:14.335Z,64.75
2018-06-08T01:29:14.330Z,64.85
2018-06-08T01:30:14.325Z,65.01
2018-06-08T01:31:35.332Z,64.82
2018-06-08T01:32:14.317Z,64.43
2018-06-08T01:33:14.313Z,65.01
2018-06-08T01:34:14.309Z,65.01
2018-06-08T01:35:14.305Z,65.14
2018-06-08T01:36:14.306Z,65.05
2018-06-08T01:37:35.304Z,65.01
2018-06-08T01:38:14.294Z,65.01
2018-06-08T01:39:14.292Z,65.30
2018-06-08T01:40:14.286Z,64.53
2018-06-08T01:41:14.285Z,65.11
2018-06-08T01:42:14.276Z,64.65
2018-06-08T01:43:35.283Z,65.01
2018-06-08T01:44:14.269Z,65.01
2018-06-08T01:45:14.264Z,65.11
2018-06-08T01:46:14.262Z,65.01
2018-06-08T01:47:14.261Z,65.11
2018-06-08T01:48:14.251Z,65.01
2018-06-08T01:49:35.258Z,65.01
2018-06-08T01:50:14.243Z,65.01
2018-06-08T01:51:14.240Z,65.01
2018-06-08T01:52:14.238Z,65.11
2018-06-08T01:53:14.232Z,65.01
2018-06-08T01:54:14.229Z,65.01
2018-06-08T01:55:35.234Z,64.92
2018-06-08T01:56:14.223Z,65.11
2018-06-08T01:57:14.216Z,65.01
2018-06-08T01:58:14.210Z,65.01
2018-06-08T01:59:14.217Z,64.92
2018-06-08T02:00:14.201Z,65.11
2018-06-08T02:01:35.208Z,65.01
2018-06-08T02:02:14.193Z,65.11
2018-06-08T02:03:14.195Z,65.01
2018-06-08T02:04:14.187Z,64.82
2018-06-08T02:05:14.182Z,64.82
2018-06-08T02:06:14.177Z,64.82
2018-06-08T02:07:35.182Z,64.92
2018-06-08T02:08:14.170Z,64.82
2018-06-08T02:09:14.166Z,64.82
2018-06-08T02:10:14.163Z,65.01
2018-06-08T02:11:14.156Z,65.11
2018-06-08T02:12:14.154Z,65.01
2018-06-08T02:13:35.158Z,65.01
2018-06-08T02:14:14.147Z,65.01
2018-06-08T02:15:14.140Z,65.01
2018-06-08T02:16:14.140Z,65.01
2018-06-08T02:17:14.133Z,65.01
2018-06-08T02:18:14.126Z,65.11
2018-06-08T02:19:35.132Z,65.01
2018-06-08T02:20:14.122Z,65.01
2018-06-08T02:21:14.116Z,65.01
2018-06-08T02:22:14.116Z,65.01
2018-06-08T02:23:14.111Z,65.01
2018-06-08T02:24:14.106Z,65.11
2018-06-08T02:25:35.106Z,64.92
2018-06-08T02:26:14.098Z,64.62
2018-06-08T02:27:14.099Z,65.11
2018-06-08T02:28:14.090Z,65.01
2018-06-08T02:29:14.085Z,64.92
2018-06-08T02:30:14.081Z,65.01
2018-06-08T02:31:35.088Z,64.43
2018-06-08T02:32:14.073Z,65.01
2018-06-08T02:33:14.068Z,65.01
2018-06-08T02:34:14.065Z,65.11
2018-06-08T02:35:14.059Z,64.53
2018-06-08T02:36:14.058Z,64.53
2018-06-08T02:37:35.062Z,64.53
2018-06-08T02:38:14.047Z,64.53
2018-06-08T02:39:14.046Z,64.43
2018-06-08T02:40:14.041Z,65.01
2018-06-08T02:41:14.038Z,65.01
2018-06-08T02:42:14.032Z,65.01
2018-06-08T02:43:35.037Z,64.53
2018-06-08T02:44:14.034Z,64.62
2018-06-08T02:45:14.021Z,64.92
2018-06-08T02:46:14.022Z,65.01
2018-06-08T02:47:14.014Z,65.01
2018-06-08T02:48:14.017Z,65.11
2018-06-08T02:49:35.012Z,64.92
2018-06-08T02:50:14.002Z,65.11
2018-06-08T02:51:13.996Z,64.53
2018-06-08T02:52:13.992Z,64.53
2018-06-08T02:53:13.996Z,64.43
2018-06-08T02:54:13.989Z,65.01
2018-06-08T02:55:34.987Z,64.72
2018-06-08T02:56:13.977Z,64.82
2018-06-08T02:57:13.991Z,64.82
2018-06-08T02:58:13.964Z,64.43
2018-06-08T02:59:13.962Z,64.53
2018-06-08T03:00:13.960Z,64.92
2018-06-08T03:01:34.959Z,65.01
2018-06-08T03:02:13.949Z,65.01
2018-06-08T03:03:13.945Z,64.53
2018-06-08T03:04:13.943Z,65.01
2018-06-08T03:05:13.943Z,64.53
2018-06-08T03:06:13.932Z,64.82
2018-06-08T03:07:34.937Z,65.01
2018-06-08T03:08:13.925Z,65.01
2018-06-08T03:09:13.918Z,64.92
2018-06-08T03:10:13.916Z,65.11
2018-06-08T03:11:13.912Z,65.11
2018-06-08T03:12:13.911Z,64.72
2018-06-08T03:13:34.910Z,64.92
2018-06-08T03:14:13.903Z,64.92
2018-06-08T03:15:13.895Z,65.11
2018-06-08T03:16:13.898Z,65.01
2018-06-08T03:17:13.893Z,65.01
2018-06-08T03:18:13.884Z,64.62
2018-06-08T03:19:34.886Z,65.01
2018-06-08T03:20:13.876Z,65.11
2018-06-08T03:21:13.875Z,65.01
2018-06-08T03:22:13.870Z,65.01
2018-06-08T03:23:13.864Z,65.11
2018-06-08T03:24:13.860Z,65.01
2018-06-08T03:25:34.862Z,65.01
2018-06-08T03:26:13.851Z,65.01
2018-06-08T03:27:13.847Z,65.11
2018-06-08T03:28:13.843Z,65.01
2018-06-08T03:29:13.837Z,65.11
2018-06-08T03:30:13.840Z,65.11
2018-06-08T03:31:34.836Z,65.01
2018-06-08T03:32:13.832Z,64.92
2018-06-08T03:33:13.826Z,65.11
2018-06-08T03:34:13.822Z,64.53
2018-06-08T03:35:13.814Z,65.01
2018-06-08T03:36:13.815Z,65.11
2018-06-08T03:37:34.810Z,65.11
2018-06-08T03:38:13.800Z,65.01
2018-06-08T03:39:13.799Z,65.01
2018-06-08T03:40:13.796Z,64.92
2018-06-08T03:41:13.788Z,64.82
2018-06-08T03:42:13.786Z,64.82
2018-06-08T03:43:34.792Z,64.82
2018-06-08T03:44:13.777Z,64.82
2018-06-08T03:45:13.770Z,64.72
2018-06-08T03:46:13.771Z,65.01
2018-06-08T03:47:13.765Z,65.11
2018-06-08T03:48:13.760Z,65.40
2018-06-08T03:49:34.764Z,65.50
2018-06-08T03:50:13.765Z,65.40
2018-06-08T03:51:13.795Z,65.50
2018-06-08T03:52:13.743Z,65.50
2018-06-08T03:53:13.766Z,65.59
2018-06-08T03:54:13.733Z,65.59
2018-06-08T03:55:34.737Z,65.79
2018-06-08T03:56:13.727Z,65.69
2018-06-08T03:57:13.741Z,65.89
2018-06-08T03:58:13.735Z,65.79
2018-06-08T03:59:13.712Z,65.89
2018-06-08T04:00:13.708Z,65.82
2018-06-08T04:01:34.709Z,65.72
2018-06-08T04:02:13.708Z,65.89
2018-06-08T04:03:13.690Z,65.72
2018-06-08T04:04:13.690Z,66.02
2018-06-08T04:05:13.681Z,65.63
2018-06-08T04:06:13.676Z,65.98
2018-06-08T04:07:34.681Z,65.50
2018-06-08T04:08:13.670Z,65.63
2018-06-08T04:09:13.663Z,65.34
2018-06-08T04:10:13.655Z,65.34
2018-06-08T04:11:13.652Z,65.43
2018-06-08T04:12:13.649Z,65.63
2018-06-08T04:13:34.646Z,65.43
2018-06-08T04:14:13.638Z,65.14
2018-06-08T04:15:13.632Z,65.24
2018-06-08T04:16:13.625Z,65.63
2018-06-08T04:17:13.620Z,65.05
2018-06-08T04:18:13.624Z,64.85
2018-06-08T04:19:34.619Z,64.85
2018-06-08T04:20:13.608Z,64.65
2018-06-08T04:21:13.598Z,65.14
2018-06-08T04:22:13.594Z,64.95
2018-06-08T04:23:13.592Z,64.85
2018-06-08T04:24:13.587Z,64.95
2018-06-08T04:25:34.587Z,64.85
2018-06-08T04:26:13.575Z,65.14
2018-06-08T04:27:13.569Z,65.14
2018-06-08T04:28:13.562Z,64.56
2018-06-08T04:29:13.555Z,64.95
2018-06-08T04:30:13.551Z,64.65
2018-06-08T04:31:34.552Z,64.65
2018-06-08T04:32:13.549Z,64.75
2018-06-08T04:33:13.538Z,64.75
2018-06-08T04:34:13.529Z,64.85
2018-06-08T04:35:13.523Z,64.27
2018-06-08T04:36:13.519Z,64.65
2018-06-08T04:37:34.522Z,64.37
2018-06-08T04:38:13.507Z,64.56
2018-06-08T04:39:13.500Z,64.47
2018-06-08T04:40:13.499Z,64.37
2018-06-08T04:41:13.492Z,64.56
2018-06-08T04:42:13.486Z,64.56
2018-06-08T04:43:34.489Z,64.56
2018-06-08T04:44:13.478Z,64.75
2018-06-08T04:45:13.468Z,64.65
2018-06-08T04:46:13.467Z,64.75
2018-06-08T04:47:13.458Z,64.75
2018-06-08T04:48:13.454Z,64.17
2018-06-08T04:49:34.452Z,64.56
2018-06-08T04:50:13.446Z,64.56
2018-06-08T04:51:13.448Z,64.27
2018-06-08T04:52:13.431Z,64.37
2018-06-08T04:53:13.432Z,64.17
2018-06-08T04:54:13.423Z,64.17
2018-06-08T04:55:34.422Z,64.17
2018-06-08T04:56:13.409Z,63.78
2018-06-08T04:57:13.403Z,63.59
2018-06-08T04:58:13.399Z,63.59
2018-06-08T04:59:13.396Z,63.59
2018-06-08T05:00:13.390Z,63.78
2018-06-08T05:01:34.389Z,63.78
2018-06-08T05:02:13.376Z,63.72
2018-06-08T05:03:13.371Z,63.59
2018-06-08T05:04:13.364Z,64.27
2018-06-08T05:05:13.358Z,64.20
2018-06-08T05:06:13.356Z,64.07
2018-06-08T05:07:34.359Z,63.88
2018-06-08T05:08:13.367Z,64.07
2018-06-08T05:09:13.337Z,63.98
2018-06-08T05:10:13.334Z,63.98
2018-06-08T05:11:13.329Z,63.69
2018-06-08T05:12:13.322Z,63.88
2018-06-08T05:13:34.323Z,63.78
2018-06-08T05:14:13.310Z,63.69
2018-06-08T05:15:13.309Z,63.49
2018-06-08T05:16:13.303Z,63.59
2018-06-08T05:17:13.296Z,63.59
2018-06-08T05:18:13.291Z,63.53
2018-06-08T05:19:34.291Z,63.59
2018-06-08T05:20:13.281Z,63.62
2018-06-08T05:21:13.272Z,63.53
2018-06-08T05:22:13.267Z,63.43
2018-06-08T05:23:13.262Z,63.23
2018-06-08T05:24:13.285Z,63.33
2018-06-08T05:25:34.258Z,63.43
2018-06-08T05:26:13.250Z,63.13
2018-06-08T05:27:13.239Z,63.33
2018-06-08T05:28:13.235Z,63.04
2018-06-08T05:29:13.231Z,63.04
2018-06-08T05:30:13.227Z,63.33
2018-06-08T05:31:34.225Z,63.13
2018-06-08T05:32:13.214Z,63.23
2018-06-08T05:33:13.212Z,63.23
2018-06-08T05:34:13.201Z,63.62
2018-06-08T05:35:13.198Z,63.33
2018-06-08T05:36:13.207Z,63.33
2018-06-08T05:37:34.193Z,63.43
2018-06-08T05:38:13.179Z,63.33
2018-06-08T05:39:13.178Z,62.95
2018-06-08T05:40:13.171Z,63.04
2018-06-08T05:41:13.167Z,63.04
2018-06-08T05:42:13.165Z,62.95
2018-06-08T05:43:34.160Z,62.85
2018-06-08T05:44:13.148Z,63.13
2018-06-08T05:45:13.142Z,62.95
2018-06-08T05:46:13.137Z,63.13
2018-06-08T05:47:13.132Z,62.85
2018-06-08T05:48:13.172Z,62.95
2018-06-08T05:49:34.128Z,62.85
2018-06-08T05:50:13.116Z,62.85
2018-06-08T05:51:13.115Z,62.65
2018-06-08T05:52:13.105Z,62.55
2018-06-08T05:53:13.099Z,62.46
2018-06-08T05:54:13.166Z,62.85
2018-06-08T05:55:34.097Z,62.65
2018-06-08T05:56:13.084Z,62.39
2018-06-08T05:57:13.079Z,62.55
2018-06-08T05:58:13.075Z,62.55
2018-06-08T05:59:13.069Z,62.49
2018-06-08T06:00:13.063Z,62.19
2018-06-08T06:01:34.062Z,62.07
2018-06-08T06:02:13.056Z,62.10
2018-06-08T06:03:13.045Z,62.19
2018-06-08T06:04:13.044Z,62.49
2018-06-08T06:05:13.035Z,62.39
2018-06-08T06:06:13.031Z,62.49
2018-06-08T06:07:34.034Z,62.49
2018-06-08T06:08:13.053Z,62.68
2018-06-08T06:09:13.018Z,62.39
2018-06-08T06:10:13.010Z,62.29
2018-06-08T06:11:13.007Z,62.29
2018-06-08T06:12:13.003Z,62.29
2018-06-08T06:13:34.002Z,62.19
2018-06-08T06:14:12.990Z,62.29
2018-06-08T06:15:12.982Z,62.49
2018-06-08T06:16:12.978Z,62.59
2018-06-08T06:17:12.977Z,62.19
2018-06-08T06:18:12.971Z,62.49
2018-06-08T06:19:33.974Z,62.59
2018-06-08T06:20:12.958Z,62.01
2018-06-08T06:21:12.949Z,62.59
2018-06-08T06:22:12.947Z,62.10
2018-06-08T06:23:12.943Z,61.91
2018-06-08T06:24:12.936Z,62.10
2018-06-08T06:25:33.935Z,62.19
2018-06-08T06:26:12.924Z,62.10
2018-06-08T06:27:12.921Z,61.91
2018-06-08T06:28:12.914Z,61.91
2018-06-08T06:29:12.914Z,62.01
2018-06-08T06:30:12.905Z,61.91
2018-06-08T06:31:33.908Z,61.91
2018-06-08T06:32:12.893Z,62.19
2018-06-08T06:33:12.888Z,61.52
2018-06-08T06:34:12.884Z,61.71
2018-06-08T06:35:12.878Z,61.52
2018-06-08T06:36:12.874Z,61.61
2018-06-08T06:37:33.871Z,61.52
2018-06-08T06:38:12.861Z,61.81
2018-06-08T06:39:12.858Z,61.52
2018-06-08T06:40:12.850Z,61.71
2018-06-08T06:41:12.847Z,61.91
2018-06-08T06:42:12.841Z,61.52
2018-06-08T06:43:33.842Z,61.71
2018-06-08T06:44:12.829Z,61.32
2018-06-08T06:45:12.827Z,61.42
2018-06-08T06:46:12.820Z,61.45
2018-06-08T06:47:12.817Z,61.07
2018-06-08T06:48:12.812Z,61.25
2018-06-08T06:49:33.814Z,61.22
2018-06-08T06:50:12.800Z,61.42
2018-06-08T06:51:12.796Z,61.25
2018-06-08T06:52:12.788Z,61.25
2018-06-08T06:53:12.827Z,61.35
2018-06-08T06:54:12.779Z,61.16
2018-06-08T06:55:33.780Z,61.35
2018-06-08T06:56:12.773Z,61.35
2018-06-08T06:57:12.763Z,61.35
2018-06-08T06:58:12.758Z,61.35
2018-06-08T06:59:12.759Z,61.42
2018-06-08T07:00:12.750Z,61.35
2018-06-08T07:01:33.749Z,61.16
2018-06-08T07:02:12.737Z,61.07
2018-06-08T07:03:12.732Z,61.35
2018-06-08T07:04:12.732Z,61.07
2018-06-08T07:05:12.720Z,60.87
2018-06-08T07:06:12.716Z,60.97
2018-06-08T07:07:33.720Z,61.07
2018-06-08T07:08:12.710Z,60.97
2018-06-08T07:09:12.701Z,60.87
2018-06-08T07:10:12.696Z,60.87
2018-06-08T07:11:12.698Z,60.87
2018-06-08T07:12:12.685Z,61.07
2018-06-08T07:13:33.689Z,60.68
2018-06-08T07:14:12.675Z,60.87
2018-06-08T07:15:12.678Z,60.97
2018-06-08T07:16:12.669Z,61.07
2018-06-08T07:17:12.697Z,60.97
2018-06-08T07:18:12.657Z,60.87
2018-06-08T07:19:33.660Z,60.68
2018-06-08T07:20:12.648Z,60.68
2018-06-08T07:21:12.645Z,60.87
2018-06-08T07:22:12.635Z,60.77
2018-06-08T07:23:12.631Z,60.68
2018-06-08T07:24:12.626Z,60.58
2018-06-08T07:25:33.627Z,60.48
2018-06-08T07:26:12.618Z,60.48
2018-06-08T07:27:12.610Z,60.28
2018-06-08T07:28:12.608Z,60.58
2018-06-08T07:29:12.603Z,60.58
2018-06-08T07:30:12.599Z,60.28
2018-06-08T07:31:33.623Z,60.58
2018-06-08T07:32:12.591Z,60.68
2018-06-08T07:33:12.579Z,60.77
2018-06-08T07:34:12.581Z,60.97
2018-06-08T07:35:12.573Z,60.77
2018-06-08T07:36:12.582Z,60.97
2018-06-08T07:37:33.578Z,60.68
2018-06-08T07:38:12.559Z,60.77
2018-06-08T07:39:12.553Z,60.97
2018-06-08T07:40:12.618Z,61.07
2018-06-08T07:41:12.584Z,61.07
2018-06-08T07:42:12.537Z,61.07
2018-06-08T07:43:33.543Z,60.87
2018-06-08T07:44:12.529Z,60.68
2018-06-08T07:45:12.524Z,60.87
2018-06-08T07:46:12.520Z,60.77
2018-06-08T07:47:12.513Z,60.68
2018-06-08T07:48:12.509Z,60.38
2018-06-08T07:49:33.511Z,60.58
2018-06-08T07:50:12.497Z,60.48
2018-06-08T07:51:12.495Z,60.38
2018-06-08T07:52:12.494Z,60.38
2018-06-08T07:53:12.482Z,60.38
2018-06-08T07:54:12.480Z,60.19
2018-06-08T07:55:33.484Z,60.38
2018-06-08T07:56:12.468Z,60.28
2018-06-08T07:57:12.466Z,60.28
2018-06-08T07:58:12.460Z,60.38
2018-06-08T07:59:12.462Z,60.19
2018-06-08T08:00:12.483Z,60.58
2018-06-08T08:01:33.452Z,60.38
2018-06-08T08:02:12.440Z,60.48
2018-06-08T08:03:12.434Z,60.58
2018-06-08T08:04:12.431Z,60.48
2018-06-08T08:05:12.424Z,60.00
2018-06-08T08:06:12.422Z,59.90
2018-06-08T08:07:33.423Z,59.90
2018-06-08T08:08:12.411Z,60.77
2018-06-08T08:09:12.457Z,60.02
2018-06-08T08:10:12.404Z,60.09
2018-06-08T08:11:12.396Z,60.02
2018-06-08T08:12:12.392Z,60.12
2018-06-08T08:13:33.391Z,60.02
2018-06-08T08:14:12.381Z,60.28
2018-06-08T08:15:12.374Z,60.31
2018-06-08T08:16:12.373Z,60.02
2018-06-08T08:17:12.366Z,60.02
2018-06-08T08:18:12.365Z,59.44
2018-06-08T08:19:33.363Z,59.92
2018-06-08T08:20:12.352Z,60.22
2018-06-08T08:21:12.347Z,60.12
2018-06-08T08:22:12.343Z,60.22
2018-06-08T08:23:12.338Z,60.22
2018-06-08T08:24:12.333Z,60.12
2018-06-08T08:25:33.333Z,60.02
2018-06-08T08:26:12.323Z,60.31
2018-06-08T08:27:12.320Z,60.31
2018-06-08T08:28:12.314Z,60.31
2018-06-08T08:29:12.308Z,60.22
2018-06-08T08:30:12.308Z,60.22
2018-06-08T08:31:33.306Z,60.12
2018-06-08T08:32:12.293Z,60.31
2018-06-08T08:33:12.288Z,59.92
2018-06-08T08:34:12.330Z,59.83
2018-06-08T08:35:12.280Z,59.83
2018-06-08T08:36:12.275Z,60.12
2018-06-08T08:37:33.279Z,60.02
2018-06-08T08:38:12.267Z,60.02
2018-06-08T08:39:12.257Z,60.02
2018-06-08T08:40:12.262Z,60.02
2018-06-08T08:41:12.249Z,60.02
2018-06-08T08:42:12.248Z,60.22
2018-06-08T08:43:33.247Z,59.83
2018-06-08T08:44:12.242Z,59.92
2018-06-08T08:45:12.232Z,59.92
2018-06-08T08:46:12.228Z,59.54
2018-06-08T08:47:12.222Z,59.34
2018-06-08T08:48:12.216Z,59.57
2018-06-08T08:49:33.220Z,59.25
2018-06-08T08:50:12.204Z,59.57
2018-06-08T08:51:12.201Z,59.57
2018-06-08T08:52:12.197Z,59.44
2018-06-08T08:53:12.194Z,59.44
2018-06-08T08:54:12.188Z,59.44
2018-06-08T08:55:33.199Z,59.47
2018-06-08T08:56:12.180Z,59.28
2018-06-08T08:57:12.174Z,59.57
2018-06-08T08:58:12.171Z,59.47
2018-06-08T08:59:12.167Z,59.08
2018-06-08T09:00:12.160Z,58.69
2018-06-08T09:01:33.162Z,58.69
2018-06-08T09:02:12.159Z,58.98
2018-06-08T09:03:12.146Z,58.89
2018-06-08T09:04:12.140Z,58.50
2018-06-08T09:05:12.138Z,58.53
2018-06-08T09:06:12.132Z,58.53
2018-06-08T09:07:33.132Z,58.43
2018-06-08T09:08:12.124Z,58.53
2018-06-08T09:09:12.116Z,58.79
2018-06-08T09:10:12.111Z,58.59
2018-06-08T09:11:12.108Z,58.43
2018-06-08T09:12:12.142Z,58.72
2018-06-08T09:13:33.108Z,58.72
2018-06-08T09:14:12.099Z,58.33
2018-06-08T09:15:12.090Z,58.23
2018-06-08T09:16:12.089Z,58.23
2018-06-08T09:17:12.080Z,58.14
2018-06-08T09:18:12.077Z,58.04
2018-06-08T09:19:33.084Z,58.33
2018-06-08T09:20:12.088Z,58.14
2018-06-08T09:21:12.064Z,58.04
2018-06-08T09:22:12.058Z,58.07
2018-06-08T09:23:12.054Z,57.97
2018-06-08T09:24:12.050Z,57.87
2018-06-08T09:25:33.051Z,57.97
2018-06-08T09:26:12.040Z,57.68
2018-06-08T09:27:12.048Z,57.97
2018-06-08T09:28:12.032Z,58.07
2018-06-08T09:29:12.031Z,58.07
2018-06-08T09:30:12.024Z,58.07
2018-06-08T09:31:33.028Z,58.17
2018-06-08T09:32:12.017Z,57.68
2018-06-08T09:33:12.039Z,57.10
2018-06-08T09:34:12.005Z,57.10
2018-06-08T09:35:12.002Z,57.29
2018-06-08T09:36:12.004Z,57.49
2018-06-08T09:37:33.002Z,57.29
2018-06-08T09:38:11.993Z,57.20
2018-06-08T09:39:11.990Z,57.20
2018-06-08T09:40:11.981Z,57.22
2018-06-08T09:41:11.975Z,57.42
2018-06-08T09:42:11.972Z,57.03
2018-06-08T09:43:32.976Z,57.22
2018-06-08T09:44:11.984Z,56.93
2018-06-08T09:45:11.960Z,56.93
2018-06-08T09:46:11.980Z,56.93
2018-06-08T09:47:11.954Z,56.93
2018-06-08T09:48:11.947Z,56.64
2018-06-08T09:49:32.950Z,56.54
2018-06-08T09:50:11.938Z,56.74
2018-06-08T09:51:11.938Z,56.84
2018-06-08T09:52:11.932Z,56.54
2018-06-08T09:53:11.957Z,56.74
2018-06-08T09:54:11.922Z,56.74
2018-06-08T09:55:32.959Z,56.64
2018-06-08T09:56:11.921Z,56.25
2018-06-08T09:57:11.917Z,56.57
2018-06-08T09:58:11.906Z,56.47
2018-06-08T09:59:11.938Z,56.27
2018-06-08T10:00:11.898Z,56.09
2018-06-08T10:01:32.899Z,56.47
2018-06-08T10:02:11.892Z,56.18
2018-06-08T10:03:11.888Z,55.99
2018-06-08T10:04:11.884Z,55.99
2018-06-08T10:05:11.895Z,56.18
2018-06-08T10:06:11.872Z,56.18
2018-06-08T10:07:32.883Z,56.47
2018-06-08T10:08:11.869Z,55.69
2018-06-08T10:09:11.860Z,56.09
2018-06-08T10:10:11.860Z,55.79
2018-06-08T10:11:11.874Z,55.69
2018-06-08T10:12:11.853Z,55.89
2018-06-08T10:13:32.856Z,55.79
2018-06-08T10:14:11.842Z,55.89
2018-06-08T10:15:11.842Z,55.79
2018-06-08T10:16:11.834Z,55.69
2018-06-08T10:17:11.830Z,55.50
2018-06-08T10:18:11.830Z,55.23
2018-06-08T10:19:32.833Z,55.30
2018-06-08T10:20:11.824Z,55.43
2018-06-08T10:21:11.816Z,55.04
2018-06-08T10:22:11.810Z,55.23
2018-06-08T10:23:11.814Z,55.33
2018-06-08T10:24:11.803Z,55.33
2018-06-08T10:25:32.806Z,55.33
2018-06-08T10:26:11.796Z,55.30
2018-06-08T10:27:11.793Z,55.33
2018-06-08T10:28:11.803Z,55.33
2018-06-08T10:29:11.783Z,55.23
2018-06-08T10:30:11.779Z,55.43
2018-06-08T10:31:32.785Z,55.52
2018-06-08T10:32:11.776Z,55.23
2018-06-08T10:33:11.774Z,55.13
2018-06-08T10:34:11.768Z,55.52
2018-06-08T10:35:11.764Z,55.43
2018-06-08T10:36:11.761Z,55.33
2018-06-08T10:37:32.763Z,55.43
2018-06-08T10:38:11.755Z,54.94
2018-06-08T10:39:11.748Z,54.75
2018-06-08T10:40:11.745Z,55.04
2018-06-08T10:41:11.740Z,54.94
2018-06-08T10:42:11.737Z,54.75
2018-06-08T10:43:32.742Z,54.75
2018-06-08T10:44:11.728Z,54.75
2018-06-08T10:45:11.723Z,54.65
2018-06-08T10:46:11.726Z,54.55
2018-06-08T10:47:11.722Z,54.85
2018-06-08T10:48:11.713Z,54.55
2018-06-08T10:49:32.717Z,54.75
2018-06-08T10:50:11.707Z,54.75
2018-06-08T10:51:11.704Z,54.68
2018-06-08T10:52:11.698Z,54.55
2018-06-08T10:53:11.699Z,54.58
2018-06-08T10:54:11.694Z,54.77
2018-06-08T10:55:32.699Z,54.75
2018-06-08T10:56:11.685Z,54.55
2018-06-08T10:57:11.681Z,54.55
2018-06-08T10:58:11.678Z,54.28
2018-06-08T10:59:11.682Z,54.46
2018-06-08T11:00:11.669Z,54.46
2018-06-08T11:01:32.673Z,54.55
2018-06-08T11:02:11.662Z,54.09
2018-06-08T11:03:11.658Z,54.28
2018-06-08T11:04:11.661Z,54.28
2018-06-08T11:05:11.650Z,54.58
2018-06-08T11:06:11.647Z,54.58
2018-06-08T11:07:32.651Z,54.48
2018-06-08T11:08:11.643Z,54.58
2018-06-08T11:09:11.636Z,54.38
2018-06-08T11:10:11.633Z,54.19
2018-06-08T11:11:11.633Z,54.58
2018-06-08T11:12:11.631Z,54.58
2018-06-08T11:13:32.628Z,54.28
2018-06-08T11:14:11.619Z,54.28
2018-06-08T11:15:11.617Z,54.19
2018-06-08T11:16:11.613Z,54.38
2018-06-08T11:17:11.608Z,54.58
2018-06-08T11:18:11.608Z,54.38
2018-06-08T11:19:32.608Z,54.38
2018-06-08T11:20:11.599Z,54.38
2018-06-08T11:21:11.604Z,54.28
2018-06-08T11:22:11.596Z,54.58
2018-06-08T11:23:11.589Z,54.68
2018-06-08T11:24:11.587Z,54.19
2018-06-08T11:25:32.589Z,54.68
2018-06-08T11:26:11.580Z,54.48
2018-06-08T11:27:11.573Z,54.48
2018-06-08T11:28:11.576Z,54.48
2018-06-08T11:29:11.568Z,54.48
2018-06-08T11:30:11.563Z,54.48
2018-06-08T11:31:32.569Z,54.48
2018-06-08T11:32:11.557Z,54.38
2018-06-08T11:33:11.549Z,54.68
2018-06-08T11:34:11.548Z,54.58
2018-06-08T11:35:11.544Z,54.58
2018-06-08T11:36:11.546Z,54.68
2018-06-08T11:37:32.546Z,54.58
2018-06-08T11:38:11.540Z,54.58
2018-06-08T11:39:11.538Z,54.38
2018-06-08T11:40:11.533Z,54.58
2018-06-08T11:41:11.531Z,54.68
2018-06-08T11:42:11.518Z,54.48
2018-06-08T11:43:32.529Z,54.58
2018-06-08T11:44:11.517Z,54.58
2018-06-08T11:45:11.508Z,54.48
2018-06-08T11:46:11.511Z,54.58
2018-06-08T11:47:11.504Z,54.48
2018-06-08T11:48:11.502Z,54.58
2018-06-08T11:49:32.503Z,54.48
2018-06-08T11:50:11.567Z,54.48
2018-06-08T11:51:11.491Z,54.28
2018-06-08T11:52:11.487Z,54.58
2018-06-08T11:53:11.501Z,54.48
2018-06-08T11:54:11.477Z,54.65
2018-06-08T11:55:32.483Z,54.68
2018-06-08T11:56:11.555Z,54.58
2018-06-08T11:57:11.466Z,54.68
2018-06-08T11:58:11.463Z,54.58
2018-06-08T11:59:11.462Z,54.58
2018-06-08T12:00:11.459Z,54.28
2018-06-08T12:01:32.462Z,54.58
2018-06-08T12:02:11.459Z,54.58
2018-06-08T12:03:11.444Z,54.58
2018-06-08T12:04:11.444Z,54.48
2018-06-08T12:05:11.436Z,54.28
2018-06-08T12:06:11.433Z,54.28
2018-06-08T12:07:32.440Z,54.19
2018-06-08T12:08:11.430Z,54.28
2018-06-08T12:09:11.425Z,54.09
2018-06-08T12:10:11.418Z,54.28
2018-06-08T12:11:11.416Z,54.38
2018-06-08T12:12:11.410Z,54.06
2018-06-08T12:13:32.416Z,54.38
2018-06-08T12:14:11.409Z,54.46
2018-06-08T12:15:11.401Z,54.46
2018-06-08T12:16:11.402Z,54.55
2018-06-08T12:17:11.427Z,54.55
2018-06-08T12:18:11.398Z,54.75
2018-06-08T12:19:32.395Z,54.75
2018-06-08T12:20:11.400Z,54.75
2018-06-08T12:21:11.380Z,54.55
2018-06-08T12:22:11.376Z,54.75
2018-06-08T12:23:11.375Z,54.75
2018-06-08T12:24:11.438Z,54.55
2018-06-08T12:25:32.376Z,54.75
2018-06-08T12:26:11.364Z,54.46
2018-06-08T12:27:11.363Z,54.55
2018-06-08T12:28:11.355Z,54.75
2018-06-08T12:29:11.353Z,54.46
2018-06-08T12:30:11.349Z,54.46
2018-06-08T12:31:32.355Z,54.46
2018-06-08T12:32:11.345Z,54.46
2018-06-08T12:33:11.338Z,54.75
2018-06-08T12:34:11.333Z,54.65
2018-06-08T12:35:11.337Z,54.65
2018-06-08T12:36:11.333Z,54.46
2018-06-08T12:37:32.352Z,54.46
2018-06-08T12:38:11.324Z,54.55
2018-06-08T12:39:11.317Z,54.65
2018-06-08T12:40:11.310Z,54.75
2018-06-08T12:41:11.309Z,54.55
2018-06-08T12:42:11.303Z,54.55
2018-06-08T12:43:32.348Z,54.85
2018-06-08T12:44:11.302Z,54.65
2018-06-08T12:45:11.296Z,54.55
2018-06-08T12:46:11.293Z,54.55
2018-06-08T12:47:11.291Z,54.55
2018-06-08T12:48:11.284Z,54.75
2018-06-08T12:49:32.431Z,54.55
2018-06-08T12:50:11.275Z,54.75
2018-06-08T12:51:11.276Z,54.65
2018-06-08T12:52:11.274Z,54.65